createdAt,value
2023-04-19T00:00:40.446Z,1009.79
2023-04-19T00:01:40.507Z,1009.80
2023-04-19T00:02:42.685Z,1009.80
2023-04-19T00:03:40.591Z,1009.79
2023-04-19T00:04:40.497Z,1009.77
2023-04-19T00:05:40.386Z,1009.79
2023-04-19T00:06:40.377Z,1009.75
2023-04-19T00:07:40.386Z,1009.74
2023-04-19T00:08:40.340Z,1009.76
2023-04-19T00:09:40.331Z,1009.72
2023-04-19T00:10:40.324Z,1009.67
2023-04-19T00:11:40.379Z,1009.68
2023-04-19T00:12:40.337Z,1009.67
2023-04-19T00:13:40.278Z,1009.68
2023-04-19T00:14:40.264Z,1009.64
2023-04-19T00:15:40.250Z,1009.64
2023-04-19T00:16:40.255Z,1009.64
2023-04-19T00:17:40.277Z,1009.64
2023-04-19T00:18:40.213Z,1009.63
2023-04-19T00:19:40.198Z,1009.64
2023-04-19T00:20:40.187Z,1009.61
2023-04-19T00:21:40.175Z,1009.59
2023-04-19T00:22:40.191Z,1009.52
2023-04-19T00:23:40.149Z,1009.56
2023-04-19T00:24:40.146Z,1009.53
2023-04-19T00:25:40.126Z,1009.53
2023-04-19T00:26:40.109Z,1009.51
2023-04-19T00:27:40.124Z,1009.54
2023-04-19T00:28:40.095Z,1009.55
2023-04-19T00:29:40.072Z,1009.55
2023-04-19T00:30:40.072Z,1009.54
2023-04-19T00:31:40.109Z,1009.55
2023-04-19T00:32:40.078Z,1009.61
2023-04-19T00:33:40.032Z,1009.56
2023-04-19T00:34:40.022Z,1009.46
2023-04-19T00:35:39.989Z,1009.50
2023-04-19T00:36:39.999Z,1009.47
2023-04-19T00:37:39.999Z,1009.40
2023-04-19T00:38:39.961Z,1009.43
2023-04-19T00:39:39.941Z,1009.49
2023-04-19T00:40:39.933Z,1009.46
2023-04-19T00:41:39.929Z,1009.44
2023-04-19T00:42:39.919Z,1009.39
2023-04-19T00:43:39.965Z,1009.41
2023-04-19T00:44:39.879Z,1009.42
2023-04-19T00:45:39.863Z,1009.39
2023-04-19T00:46:39.911Z,1009.38
2023-04-19T00:47:39.864Z,1009.39
2023-04-19T00:48:39.824Z,1009.46
2023-04-19T00:49:39.807Z,1009.43
2023-04-19T00:50:39.797Z,1009.43
2023-04-19T00:51:39.781Z,1009.44
2023-04-19T00:52:39.790Z,1009.40
2023-04-19T00:53:39.763Z,1009.43
2023-04-19T00:54:39.746Z,1009.42
2023-04-19T00:55:39.736Z,1009.41
2023-04-19T00:56:39.716Z,1009.44
2023-04-19T00:57:39.715Z,1009.42
2023-04-19T00:58:39.693Z,1009.39
2023-04-19T00:59:39.818Z,1009.37
2023-04-19T01:00:39.668Z,1009.35
2023-04-19T01:01:39.660Z,1009.35
2023-04-19T01:02:39.840Z,1009.38
2023-04-19T01:03:39.837Z,1009.35
2023-04-19T01:04:39.699Z,1009.27
2023-04-19T01:05:39.607Z,1009.34
2023-04-19T01:06:39.582Z,1009.32
2023-04-19T01:07:39.584Z,1009.32
2023-04-19T01:08:39.562Z,1009.31
2023-04-19T01:09:39.547Z,1009.34
2023-04-19T01:10:39.532Z,1009.27
2023-04-19T01:11:40.772Z,1009.33
2023-04-19T01:12:39.529Z,1009.31
2023-04-19T01:13:39.495Z,1009.29
2023-04-19T01:14:39.492Z,1009.35
2023-04-19T01:15:39.556Z,1009.31
2023-04-19T01:16:39.468Z,1009.33
2023-04-19T01:17:39.501Z,1009.30
2023-04-19T01:18:39.430Z,1009.28
2023-04-19T01:19:39.429Z,1009.27
2023-04-19T01:20:39.404Z,1009.23
2023-04-19T01:21:39.407Z,1009.22
2023-04-19T01:22:39.411Z,1009.24
2023-04-19T01:23:39.367Z,1009.13
2023-04-19T01:24:39.380Z,1009.21
2023-04-19T01:25:39.337Z,1009.19
2023-04-19T01:26:39.324Z,1009.19
2023-04-19T01:27:39.331Z,1009.21
2023-04-19T01:28:39.295Z,1009.21
2023-04-19T01:29:39.290Z,1009.20
2023-04-19T01:30:39.274Z,1009.15
2023-04-19T01:31:39.332Z,1009.17
2023-04-19T01:32:39.296Z,1009.23
2023-04-19T01:33:39.236Z,1009.19
2023-04-19T01:34:39.224Z,1009.11
2023-04-19T01:35:39.211Z,1009.14
2023-04-19T01:36:39.192Z,1009.13
2023-04-19T01:37:39.227Z,1009.11
2023-04-19T01:38:39.176Z,1009.15
2023-04-19T01:39:39.157Z,1009.06
2023-04-19T01:40:39.140Z,1009.11
2023-04-19T01:41:39.130Z,1009.06
2023-04-19T01:42:39.140Z,1009.03
2023-04-19T01:43:39.111Z,1009.03
2023-04-19T01:44:39.104Z,1009.00
2023-04-19T01:45:39.085Z,1008.97
2023-04-19T01:46:39.097Z,1009.06
2023-04-19T01:47:39.120Z,1009.02
2023-04-19T01:48:39.043Z,1009.03
2023-04-19T01:49:39.056Z,1009.01
2023-04-19T01:50:39.031Z,1009.02
2023-04-19T01:51:39.003Z,1009.00
2023-04-19T01:52:39.013Z,1009.00
2023-04-19T01:53:38.977Z,1008.93
2023-04-19T01:54:38.976Z,1008.94
2023-04-19T01:55:38.968Z,1008.93
2023-04-19T01:56:38.941Z,1008.97
2023-04-19T01:57:38.949Z,1008.98
2023-04-19T01:58:38.914Z,1008.96
2023-04-19T01:59:38.898Z,1008.89
2023-04-19T02:00:38.912Z,1008.91
2023-04-19T02:01:38.880Z,1008.93
2023-04-19T02:02:39.045Z,1008.92
2023-04-19T02:03:39.102Z,1008.94
2023-04-19T02:04:38.832Z,1008.94
2023-04-19T02:05:38.822Z,1008.88
2023-04-19T02:06:38.817Z,1008.96
2023-04-19T02:07:38.839Z,1008.94
2023-04-19T02:08:38.824Z,1008.96
2023-04-19T02:09:38.776Z,1008.95
2023-04-19T02:10:38.753Z,1008.92
2023-04-19T02:11:38.748Z,1008.92
2023-04-19T02:12:38.730Z,1008.89
2023-04-19T02:13:38.735Z,1008.94
2023-04-19T02:14:38.704Z,1008.92
2023-04-19T02:15:38.690Z,1008.91
2023-04-19T02:16:38.707Z,1008.88
2023-04-19T02:17:38.703Z,1008.87
2023-04-19T02:18:38.669Z,1008.85
2023-04-19T02:19:38.655Z,1008.83
2023-04-19T02:20:38.628Z,1008.83
2023-04-19T02:21:38.627Z,1008.84
2023-04-19T02:22:38.598Z,1008.81
2023-04-19T02:23:38.617Z,1008.82
2023-04-19T02:24:38.576Z,1008.87
2023-04-19T02:25:38.558Z,1008.88
2023-04-19T02:26:38.546Z,1008.90
2023-04-19T02:27:38.542Z,1008.85
2023-04-19T02:28:38.536Z,1008.80
2023-04-19T02:29:38.532Z,1008.85
2023-04-19T02:30:38.500Z,1008.82
2023-04-19T02:31:38.518Z,1008.77
2023-04-19T02:32:38.496Z,1008.81
2023-04-19T02:33:38.476Z,1008.92
2023-04-19T02:34:38.442Z,1008.90
2023-04-19T02:35:38.454Z,1008.88
2023-04-19T02:36:38.418Z,1008.90
2023-04-19T02:37:38.406Z,1008.92
2023-04-19T02:38:38.408Z,1008.93
2023-04-19T02:39:38.379Z,1008.91
2023-04-19T02:40:38.364Z,1008.91
2023-04-19T02:41:38.353Z,1008.94
2023-04-19T02:42:38.336Z,1008.88
2023-04-19T02:43:38.346Z,1008.93
2023-04-19T02:44:38.310Z,1008.88
2023-04-19T02:45:38.346Z,1008.95
2023-04-19T02:46:38.340Z,1008.90
2023-04-19T02:47:38.314Z,1008.85
2023-04-19T02:48:38.287Z,1008.83
2023-04-19T02:49:38.244Z,1008.84
2023-04-19T02:50:38.231Z,1008.82
2023-04-19T02:51:38.248Z,1008.87
2023-04-19T02:52:38.206Z,1008.84
2023-04-19T02:53:38.227Z,1008.87
2023-04-19T02:54:38.182Z,1008.83
2023-04-19T02:55:38.183Z,1008.87
2023-04-19T02:56:38.157Z,1008.83
2023-04-19T02:57:38.144Z,1008.85
2023-04-19T02:58:38.159Z,1008.81
2023-04-19T02:59:38.124Z,1008.73
2023-04-19T03:00:38.106Z,1008.77
2023-04-19T03:01:38.177Z,1008.79
2023-04-19T03:02:38.148Z,1008.75
2023-04-19T03:03:38.139Z,1008.77
2023-04-19T03:04:38.045Z,1008.77
2023-04-19T03:05:38.056Z,1008.72
2023-04-19T03:06:38.017Z,1008.72
2023-04-19T03:07:38.043Z,1008.73
2023-04-19T03:08:38.015Z,1008.72
2023-04-19T03:09:37.980Z,1008.71
2023-04-19T03:10:37.981Z,1008.66
2023-04-19T03:11:37.953Z,1008.74
2023-04-19T03:12:37.951Z,1008.67
2023-04-19T03:13:37.938Z,1008.74
2023-04-19T03:14:37.912Z,1008.60
2023-04-19T03:15:37.936Z,1008.54
2023-04-19T03:16:37.900Z,1008.57
2023-04-19T03:17:37.957Z,1008.59
2023-04-19T03:18:37.871Z,1008.57
2023-04-19T03:19:37.858Z,1008.59
2023-04-19T03:20:37.861Z,1008.58
2023-04-19T03:21:37.835Z,1008.52
2023-04-19T03:22:37.817Z,1008.55
2023-04-19T03:23:37.837Z,1008.56
2023-04-19T03:24:38.213Z,1008.60
2023-04-19T03:25:37.766Z,1008.60
2023-04-19T03:26:37.747Z,1008.53
2023-04-19T03:27:37.738Z,1008.54
2023-04-19T03:28:37.734Z,1008.53
2023-04-19T03:29:37.711Z,1008.56
2023-04-19T03:30:37.706Z,1008.57
2023-04-19T03:31:37.721Z,1008.52
2023-04-19T03:32:37.691Z,1008.57
2023-04-19T03:33:37.673Z,1008.50
2023-04-19T03:34:37.634Z,1008.53
2023-04-19T03:35:37.627Z,1008.51
2023-04-19T03:36:37.622Z,1008.46
2023-04-19T03:37:37.626Z,1008.43
2023-04-19T03:38:37.608Z,1008.43
2023-04-19T03:39:37.602Z,1008.45
2023-04-19T03:40:37.566Z,1008.41
2023-04-19T03:41:37.548Z,1008.42
2023-04-19T03:42:37.531Z,1008.43
2023-04-19T03:43:37.560Z,1008.32
2023-04-19T03:44:37.503Z,1008.37
2023-04-19T03:45:37.490Z,1008.39
2023-04-19T03:46:37.626Z,1008.39
2023-04-19T03:47:37.510Z,1008.38
2023-04-19T03:48:37.452Z,1008.32
2023-04-19T03:49:37.459Z,1008.32
2023-04-19T03:50:37.448Z,1008.30
2023-04-19T03:51:37.421Z,1008.33
2023-04-19T03:52:37.410Z,1008.29
2023-04-19T03:53:37.385Z,1008.29
2023-04-19T03:54:37.392Z,1008.27
2023-04-19T03:55:37.377Z,1008.27
2023-04-19T03:56:37.341Z,1008.29
2023-04-19T03:57:37.348Z,1008.30
2023-04-19T03:58:37.316Z,1008.37
2023-04-19T03:59:37.317Z,1008.32
2023-04-19T04:00:37.295Z,1008.35
2023-04-19T04:01:37.305Z,1008.29
2023-04-19T04:02:37.327Z,1008.29
2023-04-19T04:03:37.593Z,1008.29
2023-04-19T04:04:37.349Z,1008.34
2023-04-19T04:05:37.322Z,1008.27
2023-04-19T04:06:37.225Z,1008.27
2023-04-19T04:07:37.195Z,1008.20
2023-04-19T04:08:37.181Z,1008.21
2023-04-19T04:09:37.189Z,1008.21
2023-04-19T04:10:37.155Z,1008.22
2023-04-19T04:11:37.178Z,1008.29
2023-04-19T04:12:37.129Z,1008.25
2023-04-19T04:13:37.114Z,1008.30
2023-04-19T04:14:37.117Z,1008.30
2023-04-19T04:15:37.095Z,1008.32
2023-04-19T04:16:37.143Z,1008.32
2023-04-19T04:17:37.120Z,1008.31
2023-04-19T04:18:37.052Z,1008.30
2023-04-19T04:19:37.073Z,1008.32
2023-04-19T04:20:37.036Z,1008.38
2023-04-19T04:21:37.040Z,1008.35
2023-04-19T04:22:37.000Z,1008.32
2023-04-19T04:23:36.986Z,1008.30
2023-04-19T04:24:37.031Z,1008.36
2023-04-19T04:25:36.957Z,1008.35
2023-04-19T04:26:36.945Z,1008.28
2023-04-19T04:27:37.036Z,1008.30
2023-04-19T04:28:36.927Z,1008.30
2023-04-19T04:29:36.941Z,1008.32
2023-04-19T04:30:36.909Z,1008.35
2023-04-19T04:31:36.908Z,1008.27
2023-04-19T04:32:36.946Z,1008.37
2023-04-19T04:33:36.873Z,1008.38
2023-04-19T04:34:36.872Z,1008.34
2023-04-19T04:35:36.845Z,1008.36
2023-04-19T04:36:36.829Z,1008.33
2023-04-19T04:37:36.833Z,1008.34
2023-04-19T04:38:36.878Z,1008.33
2023-04-19T04:39:36.806Z,1008.36
2023-04-19T04:40:36.781Z,1008.34
2023-04-19T04:41:36.767Z,1008.32
2023-04-19T04:42:36.768Z,1008.35
2023-04-19T04:43:36.879Z,1008.34
2023-04-19T04:44:36.752Z,1008.36
2023-04-19T04:45:36.753Z,1008.33
2023-04-19T04:46:36.732Z,1008.33
2023-04-19T04:47:36.732Z,1008.28
2023-04-19T04:48:36.679Z,1008.28
2023-04-19T04:49:36.691Z,1008.28
2023-04-19T04:50:36.659Z,1008.30
2023-04-19T04:51:36.644Z,1008.29
2023-04-19T04:52:36.677Z,1008.20
2023-04-19T04:53:36.620Z,1008.23
2023-04-19T04:54:36.648Z,1008.29
2023-04-19T04:55:36.596Z,1008.25
2023-04-19T04:56:36.603Z,1008.23
2023-04-19T04:57:36.567Z,1008.25
2023-04-19T04:58:36.554Z,1008.22
2023-04-19T04:59:36.583Z,1008.24
2023-04-19T05:00:36.549Z,1008.24
2023-04-19T05:01:36.524Z,1008.25
2023-04-19T05:02:36.613Z,1008.25
2023-04-19T05:03:36.543Z,1008.25
2023-04-19T05:04:36.612Z,1008.24
2023-04-19T05:05:36.471Z,1008.25
2023-04-19T05:06:36.449Z,1008.28
2023-04-19T05:07:36.438Z,1008.29
2023-04-19T05:08:36.423Z,1008.29
2023-04-19T05:09:36.439Z,1008.31
2023-04-19T05:10:36.396Z,1008.27
2023-04-19T05:11:36.385Z,1008.27
2023-04-19T05:12:36.381Z,1008.31
2023-04-19T05:13:36.371Z,1008.32
2023-04-19T05:14:36.361Z,1008.23
2023-04-19T05:15:36.352Z,1008.21
2023-04-19T05:16:36.421Z,1008.21
2023-04-19T05:17:36.363Z,1008.21
2023-04-19T05:18:36.288Z,1008.23
2023-04-19T05:19:36.305Z,1008.21
2023-04-19T05:20:36.325Z,1008.26
2023-04-19T05:21:36.349Z,1008.25
2023-04-19T05:22:36.302Z,1008.23
2023-04-19T05:23:36.276Z,1008.22
2023-04-19T05:24:36.249Z,1008.27
2023-04-19T05:25:36.270Z,1008.30
2023-04-19T05:26:36.190Z,1008.27
2023-04-19T05:27:36.174Z,1008.35
2023-04-19T05:28:36.344Z,1008.31
2023-04-19T05:29:36.165Z,1008.39
2023-04-19T05:30:36.158Z,1008.30
2023-04-19T05:31:36.185Z,1008.31
2023-04-19T05:32:36.212Z,1008.31
2023-04-19T05:33:36.351Z,1008.25
2023-04-19T05:34:36.097Z,1008.25
2023-04-19T05:35:36.076Z,1008.26
2023-04-19T05:36:36.070Z,1008.20
2023-04-19T05:37:36.051Z,1008.13
2023-04-19T05:38:36.034Z,1008.24
2023-04-19T05:39:36.035Z,1008.18
2023-04-19T05:40:36.010Z,1008.18
2023-04-19T05:41:36.017Z,1008.20
2023-04-19T05:42:35.999Z,1008.18
2023-04-19T05:43:36.055Z,1008.18
2023-04-19T05:44:35.969Z,1008.16
2023-04-19T05:45:35.942Z,1008.18
2023-04-19T05:46:35.945Z,1008.11
2023-04-19T05:47:35.961Z,1008.07
2023-04-19T05:48:35.906Z,1008.01
2023-04-19T05:49:35.910Z,1008.03
2023-04-19T05:50:35.875Z,1008.02
2023-04-19T05:51:35.911Z,1008.01
2023-04-19T05:52:35.848Z,1008.01
2023-04-19T05:53:35.827Z,1008.01
2023-04-19T05:54:35.873Z,1008.03
2023-04-19T05:55:35.804Z,1007.98
2023-04-19T05:56:35.794Z,1008.08
2023-04-19T05:57:35.779Z,1008.09
2023-04-19T05:58:35.765Z,1008.08
2023-04-19T05:59:35.813Z,1008.10
2023-04-19T06:00:35.735Z,1008.14
2023-04-19T06:01:35.721Z,1008.11
2023-04-19T06:02:35.856Z,1008.09
2023-04-19T06:03:35.880Z,1008.07
2023-04-19T06:04:35.817Z,1008.15
2023-04-19T06:05:35.717Z,1008.09
2023-04-19T06:06:35.652Z,1008.09
2023-04-19T06:07:39.973Z,1008.18
2023-04-19T06:08:35.629Z,1008.16
2023-04-19T06:09:35.620Z,1008.12
2023-04-19T06:10:48.935Z,1008.10
2023-04-19T06:11:43.096Z,1008.12
2023-04-19T06:12:35.577Z,1008.16
2023-04-19T06:13:35.562Z,1008.12
2023-04-19T06:14:35.544Z,1008.17
2023-04-19T06:15:35.573Z,1008.15
2023-04-19T06:16:35.587Z,1008.16
2023-04-19T06:17:35.538Z,1008.15
2023-04-19T06:18:35.520Z,1008.14
2023-04-19T06:19:35.505Z,1008.21
2023-04-19T06:20:35.515Z,1008.20
2023-04-19T06:21:35.454Z,1008.24
2023-04-19T06:22:35.451Z,1008.17
2023-04-19T06:23:35.424Z,1008.20
2023-04-19T06:24:35.497Z,1008.24
2023-04-19T06:25:35.406Z,1008.23
2023-04-19T06:26:35.379Z,1008.26
2023-04-19T06:27:35.363Z,1008.23
2023-04-19T06:28:35.379Z,1008.21
2023-04-19T06:29:35.356Z,1008.19
2023-04-19T06:30:35.342Z,1008.21
2023-04-19T06:31:35.353Z,1008.28
2023-04-19T06:32:35.347Z,1008.21
2023-04-19T06:33:35.295Z,1008.22
2023-04-19T06:34:35.290Z,1008.22
2023-04-19T06:35:35.458Z,1008.22
2023-04-19T06:36:35.289Z,1008.26
2023-04-19T06:37:35.263Z,1008.22
2023-04-19T06:38:35.351Z,1008.28
2023-04-19T06:39:36.203Z,1008.25
2023-04-19T06:40:35.217Z,1008.24
2023-04-19T06:41:35.191Z,1008.17
2023-04-19T06:42:35.195Z,1008.21
2023-04-19T06:43:35.158Z,1008.16
2023-04-19T06:44:35.143Z,1008.17
2023-04-19T06:45:35.169Z,1008.20
2023-04-19T06:46:35.107Z,1008.14
2023-04-19T06:47:35.678Z,1008.16
2023-04-19T06:48:35.085Z,1008.14
2023-04-19T06:49:35.071Z,1008.14
2023-04-19T06:50:35.152Z,1008.16
2023-04-19T06:51:35.057Z,1008.15
2023-04-19T06:52:35.030Z,1008.14
2023-04-19T06:53:35.022Z,1008.13
2023-04-19T06:54:35.015Z,1008.15
2023-04-19T06:55:34.997Z,1008.17
2023-04-19T06:56:34.992Z,1008.17
2023-04-19T06:57:34.961Z,1008.15
2023-04-19T06:58:35.492Z,1008.17
2023-04-19T06:59:34.937Z,1008.18
2023-04-19T07:00:34.922Z,1008.18
2023-04-19T07:01:34.976Z,1008.20
2023-04-19T07:02:35.019Z,1008.13
2023-04-19T07:03:35.066Z,1008.13
2023-04-19T07:04:34.937Z,1008.11
2023-04-19T07:05:34.848Z,1008.12
2023-04-19T07:06:34.857Z,1008.11
2023-04-19T07:07:34.843Z,1008.07
2023-04-19T07:08:48.633Z,1008.11
2023-04-19T07:09:34.805Z,1008.08
2023-04-19T07:10:34.782Z,1008.11
2023-04-19T07:11:34.794Z,1008.12
2023-04-19T07:12:34.760Z,1008.11
2023-04-19T07:13:34.743Z,1008.10
2023-04-19T07:14:34.725Z,1008.10
2023-04-19T07:15:34.744Z,1008.06
2023-04-19T07:16:34.732Z,1008.06
2023-04-19T07:17:34.774Z,1008.01
2023-04-19T07:18:34.677Z,1008.05
2023-04-19T07:19:34.687Z,1007.99
2023-04-19T07:20:34.642Z,1008.02
2023-04-19T07:21:34.698Z,1007.97
2023-04-19T07:22:34.635Z,1007.90
2023-04-19T07:23:34.859Z,1007.92
2023-04-19T07:24:34.610Z,1007.92
2023-04-19T07:25:34.573Z,1007.87
2023-04-19T07:26:34.586Z,1007.88
2023-04-19T07:27:34.545Z,1007.78
2023-04-19T07:28:34.535Z,1007.89
2023-04-19T07:29:34.569Z,1007.93
2023-04-19T07:30:34.508Z,1007.94
2023-04-19T07:31:34.509Z,1007.95
2023-04-19T07:32:34.612Z,1007.91
2023-04-19T07:33:34.516Z,1007.92
2023-04-19T07:34:34.455Z,1007.88
2023-04-19T07:35:34.448Z,1007.92
2023-04-19T07:36:34.443Z,1007.94
2023-04-19T07:37:34.436Z,1007.89
2023-04-19T07:38:34.399Z,1007.93
2023-04-19T07:39:34.451Z,1007.93
2023-04-19T07:40:34.374Z,1007.92
2023-04-19T07:41:35.960Z,1007.94
2023-04-19T07:42:34.354Z,1007.87
2023-04-19T07:43:34.332Z,1007.87
2023-04-19T07:44:34.326Z,1007.99
2023-04-19T07:45:34.341Z,1007.84
2023-04-19T07:46:34.355Z,1007.94
2023-04-19T07:47:34.332Z,1007.84
2023-04-19T07:48:34.268Z,1007.83
2023-04-19T07:49:34.375Z,1007.90
2023-04-19T07:50:34.242Z,1007.82
2023-04-19T07:51:34.244Z,1007.81
2023-04-19T07:52:34.220Z,1007.76
2023-04-19T07:53:34.200Z,1007.80
2023-04-19T07:54:34.193Z,1007.81
2023-04-19T07:55:34.205Z,1007.76
2023-04-19T07:56:34.180Z,1007.82
2023-04-19T07:57:34.150Z,1007.78
2023-04-19T07:58:34.141Z,1007.74
2023-04-19T07:59:34.136Z,1007.74
2023-04-19T08:00:34.116Z,1007.78
2023-04-19T08:01:34.191Z,1007.72
2023-04-19T08:02:34.383Z,1007.75
2023-04-19T08:03:34.205Z,1007.78
2023-04-19T08:04:34.382Z,1007.84
2023-04-19T08:05:34.090Z,1007.82
2023-04-19T08:06:34.049Z,1007.79
2023-04-19T08:07:34.015Z,1007.79
2023-04-19T08:08:34.284Z,1007.79
2023-04-19T08:09:34.136Z,1007.76
2023-04-19T08:10:33.979Z,1007.73
2023-04-19T08:11:34.010Z,1007.74
2023-04-19T08:12:41.262Z,1007.72
2023-04-19T08:13:33.936Z,1007.89
2023-04-19T08:14:43.880Z,1007.86
2023-04-19T08:17:11.434Z,1007.89
2023-04-19T08:17:41.381Z,1007.91
2023-04-19T08:18:34.910Z,1007.90
2023-04-19T08:19:33.861Z,1007.80
2023-04-19T08:20:33.851Z,1007.77
2023-04-19T08:21:40.526Z,1007.72
2023-04-19T08:22:33.822Z,1007.65
2023-04-19T08:23:47.279Z,1007.64
2023-04-19T08:24:33.797Z,1007.71
2023-04-19T08:25:33.778Z,1007.63
2023-04-19T08:26:33.792Z,1007.61
2023-04-19T08:27:33.849Z,1007.60
2023-04-19T08:28:33.744Z,1007.61
2023-04-19T08:29:33.732Z,1007.60
2023-04-19T08:30:33.715Z,1007.58
2023-04-19T08:31:33.761Z,1007.84
2023-04-19T08:32:33.719Z,1007.76
2023-04-19T08:33:33.677Z,1007.70
2023-04-19T08:34:33.670Z,1007.76
2023-04-19T08:35:33.648Z,1007.69
2023-04-19T08:36:41.175Z,1007.64
2023-04-19T08:37:33.625Z,1007.74
2023-04-19T08:38:33.612Z,1007.79
2023-04-19T08:39:34.444Z,1007.78
2023-04-19T08:40:33.598Z,1007.88
2023-04-19T08:41:33.585Z,1007.83
2023-04-19T08:42:36.903Z,1007.85
2023-04-19T08:43:33.608Z,1007.82
2023-04-19T08:44:36.645Z,1007.75
2023-04-19T08:45:33.521Z,1007.77
2023-04-19T08:46:33.667Z,1007.76
2023-04-19T08:47:34.281Z,1007.78
2023-04-19T08:48:33.561Z,1007.74
2023-04-19T08:49:33.472Z,1007.68
2023-04-19T08:50:42.760Z,1007.63
2023-04-19T08:51:34.459Z,1007.69
2023-04-19T08:52:35.411Z,1007.65
2023-04-19T08:53:33.445Z,1007.67
2023-04-19T08:54:33.424Z,1007.60
2023-04-19T08:55:33.403Z,1007.67
2023-04-19T08:56:35.982Z,1007.63
2023-04-19T08:57:33.358Z,1007.73
2023-04-19T08:58:51.900Z,1007.69
2023-04-19T08:59:33.360Z,1007.60
2023-04-19T09:00:33.324Z,1007.55
2023-04-19T09:01:36.103Z,1007.62
2023-04-19T09:02:33.492Z,1007.70
2023-04-19T09:03:38.572Z,1007.61
2023-04-19T09:04:37.260Z,1007.53
2023-04-19T09:05:33.498Z,1007.55
2023-04-19T09:06:33.427Z,1007.53
2023-04-19T09:07:33.232Z,1007.59
2023-04-19T09:08:33.224Z,1007.57
2023-04-19T09:09:39.207Z,1007.60
2023-04-19T09:10:34.198Z,1007.60
2023-04-19T09:11:33.193Z,1007.54
2023-04-19T09:12:33.163Z,1007.41
2023-04-19T09:13:33.151Z,1007.54
2023-04-19T09:14:33.142Z,1007.45
2023-04-19T09:15:33.214Z,1007.41
2023-04-19T09:16:33.158Z,1007.40
2023-04-19T09:17:33.165Z,1007.38
2023-04-19T09:18:35.917Z,1007.45
2023-04-19T09:19:34.073Z,1007.37
2023-04-19T09:20:33.070Z,1007.42
2023-04-19T09:21:33.061Z,1007.37
2023-04-19T09:22:33.043Z,1007.39
2023-04-19T09:23:33.023Z,1007.38
2023-04-19T09:24:49.654Z,1007.43
2023-04-19T09:25:47.109Z,1007.33
2023-04-19T09:26:32.996Z,1007.31
2023-04-19T09:27:32.983Z,1007.34
2023-04-19T09:28:33.008Z,1007.38
2023-04-19T09:29:32.947Z,1007.23
2023-04-19T09:30:40.200Z,1007.38
2023-04-19T09:31:47.812Z,1007.25
2023-04-19T09:32:33.978Z,1007.24
2023-04-19T09:33:32.979Z,1007.32
2023-04-19T09:34:32.877Z,1007.42
2023-04-19T09:35:32.901Z,1007.33
2023-04-19T09:36:32.884Z,1007.43
2023-04-19T09:37:57.228Z,1007.48
2023-04-19T09:38:32.826Z,1007.36
2023-04-19T09:39:32.811Z,1007.39
2023-04-19T09:40:32.834Z,1007.44
2023-04-19T09:41:32.845Z,1007.35
2023-04-19T09:42:50.977Z,1007.43
2023-04-19T09:44:56.134Z,1007.31
2023-04-19T09:45:33.732Z,1007.47
2023-04-19T09:46:32.793Z,1007.40
2023-04-19T09:47:32.775Z,1007.44
2023-04-19T09:48:32.698Z,1007.48
2023-04-19T09:49:45.901Z,1007.36
2023-04-19T09:51:32.659Z,1007.30
2023-04-19T09:52:32.665Z,1007.30
2023-04-19T09:53:32.630Z,1007.36
2023-04-19T09:54:32.626Z,1007.39
2023-04-19T09:55:38.570Z,1007.30
2023-04-19T09:56:33.599Z,1007.28
2023-04-19T09:57:32.598Z,1007.34
2023-04-19T09:59:32.575Z,1007.38
2023-04-19T10:00:41.730Z,1007.25
2023-04-19T10:01:32.550Z,1007.24
2023-04-19T10:02:32.692Z,1007.22
2023-04-19T10:03:32.669Z,1007.29
2023-04-19T10:04:47.742Z,1007.12
2023-04-19T10:05:33.760Z,1006.93
2023-04-19T10:06:46.274Z,1007.18
2023-04-19T10:07:33.497Z,1007.21
2023-04-19T10:08:32.443Z,1007.22
2023-04-19T10:09:34.083Z,1007.17
2023-04-19T10:10:42.005Z,1006.97
2023-04-19T10:11:33.410Z,1007.06
2023-04-19T10:12:52.287Z,1007.23
2023-04-19T10:13:32.384Z,1007.24
2023-04-19T10:14:32.415Z,1007.25
2023-04-19T10:15:47.222Z,1007.21
2023-04-19T10:16:32.421Z,1007.20
2023-04-19T10:17:32.384Z,1007.23
2023-04-19T10:18:32.353Z,1007.12
2023-04-19T10:19:32.328Z,1007.23
2023-04-19T10:20:32.306Z,1007.19
2023-04-19T10:21:32.289Z,1007.19
2023-04-19T10:22:32.297Z,1007.20
2023-04-19T10:23:32.248Z,1007.25
2023-04-19T10:24:32.256Z,1007.13
2023-04-19T10:25:32.241Z,1007.13
2023-04-19T10:26:32.222Z,1007.12
2023-04-19T10:27:32.221Z,1007.09
2023-04-19T10:28:32.183Z,1007.19
2023-04-19T10:29:32.174Z,1007.08
2023-04-19T10:30:32.155Z,1007.25
2023-04-19T10:31:32.227Z,1007.05
2023-04-19T10:32:32.213Z,1007.05
2023-04-19T10:33:32.140Z,1007.06
2023-04-19T10:34:32.117Z,1007.05
2023-04-19T10:35:32.182Z,1007.08
2023-04-19T10:36:32.116Z,1006.97
2023-04-19T10:37:32.128Z,1007.02
2023-04-19T10:38:32.055Z,1007.03
2023-04-19T10:39:32.048Z,1006.99
2023-04-19T10:40:32.031Z,1007.07
2023-04-19T10:41:32.024Z,1006.98
2023-04-19T10:42:32.029Z,1007.07
2023-04-19T10:43:32.011Z,1007.06
2023-04-19T10:44:31.984Z,1007.15
2023-04-19T10:45:31.976Z,1007.10
2023-04-19T10:46:32.018Z,1007.05
2023-04-19T10:47:31.984Z,1007.02
2023-04-19T10:48:31.930Z,1007.01
2023-04-19T10:49:31.924Z,1006.99
2023-04-19T10:50:31.922Z,1006.98
2023-04-19T10:51:31.949Z,1007.01
2023-04-19T10:52:31.923Z,1006.94
2023-04-19T10:53:31.872Z,1006.95
2023-04-19T10:54:31.971Z,1007.09
2023-04-19T10:55:31.886Z,1006.89
2023-04-19T10:56:31.836Z,1006.89
2023-04-19T10:57:31.844Z,1006.92
2023-04-19T10:58:31.850Z,1006.85
2023-04-19T10:59:31.844Z,1006.87
2023-04-19T11:00:31.792Z,1006.88
2023-04-19T11:01:31.839Z,1006.98
2023-04-19T11:02:31.914Z,1006.82
2023-04-19T11:03:31.940Z,1006.87
2023-04-19T11:04:32.052Z,1006.91
2023-04-19T11:05:31.726Z,1006.90
2023-04-19T11:06:31.713Z,1006.85
2023-04-19T11:07:31.803Z,1006.82
2023-04-19T11:08:31.812Z,1006.82
2023-04-19T11:09:31.682Z,1006.84
2023-04-19T11:10:31.673Z,1006.81
2023-04-19T11:11:31.657Z,1006.73
2023-04-19T11:12:31.667Z,1006.76
2023-04-19T11:13:31.627Z,1006.72
2023-04-19T11:14:31.607Z,1006.79
2023-04-19T11:15:31.601Z,1006.85
2023-04-19T11:16:44.915Z,1006.75
2023-04-19T11:17:31.716Z,1006.81
2023-04-19T11:18:31.593Z,1006.78
2023-04-19T11:19:31.577Z,1006.79
2023-04-19T11:20:31.539Z,1006.75
2023-04-19T11:21:31.541Z,1006.68
2023-04-19T11:22:31.555Z,1006.72
2023-04-19T11:23:31.553Z,1006.68
2023-04-19T11:24:31.492Z,1006.70
2023-04-19T11:25:31.496Z,1006.78
2023-04-19T11:26:31.469Z,1006.69
2023-04-19T11:27:31.506Z,1006.79
2023-04-19T11:28:31.442Z,1006.61
2023-04-19T11:29:31.428Z,1006.65
2023-04-19T11:30:31.414Z,1006.65
2023-04-19T11:31:31.437Z,1006.55
2023-04-19T11:32:31.451Z,1006.64
2023-04-19T11:33:31.384Z,1006.59
2023-04-19T11:34:31.368Z,1006.49
2023-04-19T11:35:31.361Z,1006.56
2023-04-19T11:36:31.343Z,1006.52
2023-04-19T11:37:31.350Z,1006.54
2023-04-19T11:38:31.320Z,1006.57
2023-04-19T11:39:31.338Z,1006.51
2023-04-19T11:40:31.299Z,1006.56
2023-04-19T11:41:31.308Z,1006.42
2023-04-19T11:42:31.296Z,1006.42
2023-04-19T11:43:31.279Z,1006.36
2023-04-19T11:44:31.244Z,1006.38
2023-04-19T11:45:34.381Z,1006.35
2023-04-19T11:46:31.251Z,1006.31
2023-04-19T11:47:31.321Z,1006.33
2023-04-19T11:48:31.191Z,1006.35
2023-04-19T11:49:31.199Z,1006.40
2023-04-19T11:50:31.172Z,1006.45
2023-04-19T11:51:31.173Z,1006.29
2023-04-19T11:52:31.159Z,1006.41
2023-04-19T11:53:31.140Z,1006.30
2023-04-19T11:54:31.128Z,1006.37
2023-04-19T11:55:31.147Z,1006.40
2023-04-19T11:56:31.101Z,1006.30
2023-04-19T11:57:31.113Z,1006.35
2023-04-19T11:58:31.086Z,1006.33
2023-04-19T11:59:31.061Z,1006.28
2023-04-19T12:00:31.045Z,1006.27
2023-04-19T12:01:31.035Z,1006.34
2023-04-19T12:02:31.080Z,1006.29
2023-04-19T12:03:31.296Z,1006.33
2023-04-19T12:04:31.134Z,1006.21
2023-04-19T12:05:31.116Z,1006.27
2023-04-19T12:06:30.974Z,1006.28
2023-04-19T12:07:30.968Z,1006.27
2023-04-19T12:08:30.979Z,1006.18
2023-04-19T12:09:30.937Z,1006.23